createdAt,value
2023-03-24T00:01:29.049Z,1.00
2023-03-24T00:06:26.862Z,1.00
2023-03-24T00:08:54.962Z,1.00
2023-03-24T00:11:22.177Z,1.00
2023-03-24T00:13:50.758Z,1.00
2023-03-24T00:16:19.802Z,4.00
2023-03-24T00:21:25.048Z,40.40
2023-03-24T00:23:58.457Z,85.30
2023-03-24T00:36:21.185Z,51.30
2023-03-24T00:38:48.679Z,68.70
2023-03-24T00:43:49.734Z,42.30
2023-03-24T00:46:29.218Z,39.90
2023-03-24T00:49:07.839Z,27.10
2023-03-24T00:51:40.959Z,35.90
2023-03-24T00:54:11.385Z,34.70
2023-03-24T00:56:40.996Z,33.90
2023-03-24T00:59:10.503Z,51.50
2023-03-24T01:01:39.692Z,51.60
2023-03-24T01:04:10.233Z,44.80
2023-03-24T01:06:39.528Z,64.60
2023-03-24T01:09:07.952Z,66.50
2023-03-24T01:11:40.301Z,81.20
2023-03-24T01:14:09.784Z,99.70
2023-03-24T01:16:37.595Z,99.90
2023-03-24T01:19:07.210Z,99.90
2023-03-24T01:21:35.292Z,99.90
2023-03-24T01:24:05.166Z,99.90
2023-03-24T01:26:32.532Z,99.90
2023-03-24T01:29:00.130Z,99.90
2023-03-24T01:31:27.357Z,99.90
2023-03-24T01:33:54.796Z,99.90
2023-03-24T01:36:22.220Z,99.90
2023-03-24T01:38:49.812Z,99.90
2023-03-24T01:41:17.331Z,99.90
2023-03-24T01:43:45.404Z,99.90
2023-03-24T01:46:17.542Z,99.90
2023-03-24T01:49:02.606Z,99.90
2023-03-24T01:51:41.461Z,99.90
2023-03-24T01:54:28.186Z,99.90
2023-03-24T01:57:13.425Z,99.90
2023-03-24T01:59:46.611Z,99.90
2023-03-24T02:02:43.518Z,99.90
2023-03-24T02:05:14.605Z,99.90
2023-03-24T02:08:04.405Z,99.90
2023-03-24T02:10:34.235Z,99.90
2023-03-24T02:13:04.150Z,99.90
2023-03-24T02:15:36.748Z,99.90
2023-03-24T02:18:34.252Z,99.90
2023-03-24T02:21:43.699Z,99.90
2023-03-24T02:24:49.946Z,99.90
2023-03-24T02:27:38.783Z,99.90
2023-03-24T02:30:18.169Z,99.90
2023-03-24T02:32:55.574Z,99.90
2023-03-24T02:35:47.424Z,99.90
2023-03-24T02:38:53.599Z,99.90
2023-03-24T02:41:57.591Z,99.90
2023-03-24T02:44:47.258Z,99.90
2023-03-24T02:47:30.476Z,99.90
2023-03-24T02:50:10.859Z,99.90
2023-03-24T02:53:00.925Z,99.90
2023-03-24T02:55:43.623Z,99.90
2023-03-24T02:58:23.466Z,99.90
2023-03-24T03:01:05.476Z,99.90
2023-03-24T03:04:22.457Z,99.90
2023-03-24T03:06:55.607Z,99.90
2023-03-24T03:09:24.275Z,99.90
2023-03-24T03:11:54.857Z,99.90
2023-03-24T03:14:38.330Z,99.90
2023-03-24T03:17:17.744Z,99.90
2023-03-24T03:19:55.656Z,99.90
2023-03-24T03:22:27.424Z,99.90
2023-03-24T03:24:57.475Z,99.90
2023-03-24T03:27:31.414Z,99.90
2023-03-24T03:30:04.937Z,99.90
2023-03-24T03:32:39.274Z,99.90
2023-03-24T03:35:29.256Z,99.90
2023-03-24T03:38:16.417Z,99.90
2023-03-24T03:41:00.722Z,99.90
2023-03-24T03:43:34.546Z,99.90
2023-03-24T03:46:04.062Z,99.90
2023-03-24T03:48:36.463Z,99.90
2023-03-24T03:51:12.941Z,99.90
2023-03-24T03:53:53.988Z,99.90
2023-03-24T03:56:25.594Z,99.90
2023-03-24T03:59:34.119Z,99.90
2023-03-24T04:02:21.738Z,99.90
2023-03-24T04:05:10.842Z,99.90
2023-03-24T04:08:12.259Z,99.90
2023-03-24T04:11:41.968Z,99.90
2023-03-24T04:14:39.833Z,99.90
2023-03-24T04:20:02.455Z,99.90
2023-03-24T04:23:03.207Z,99.90
2023-03-24T04:26:02.171Z,99.90
2023-03-24T04:28:52.759Z,99.90
2023-03-24T04:31:29.042Z,99.90
2023-03-24T04:34:04.307Z,99.90
2023-03-24T04:39:28.364Z,99.90
2023-03-24T04:42:01.496Z,99.90
2023-03-24T04:44:33.295Z,99.90
2023-03-24T04:47:23.107Z,99.90
2023-03-24T04:50:12.716Z,99.90
2023-03-24T04:52:42.191Z,99.90
2023-03-24T04:55:32.399Z,99.90
2023-03-24T04:57:59.802Z,99.90
2023-03-24T05:05:26.726Z,99.90
2023-03-24T05:07:54.760Z,99.90
2023-03-24T05:10:23.722Z,99.90
2023-03-24T05:12:55.064Z,99.90
2023-03-24T05:15:41.401Z,99.90
2023-03-24T05:18:27.140Z,99.90
2023-03-24T05:20:57.463Z,99.90
2023-03-24T05:23:25.660Z,99.90
2023-03-24T05:30:55.517Z,99.90
2023-03-24T06:02:17.416Z,99.90
2023-03-24T06:04:51.881Z,99.90
2023-03-24T06:10:03.160Z,99.90
2023-03-24T06:15:07.860Z,99.90
2023-03-24T06:50:56.026Z,1.00
2023-03-24T07:16:45.188Z,1.00
2023-03-24T07:25:41.114Z,1.00
2023-03-24T07:50:57.514Z,9.10
2023-03-24T07:53:51.205Z,42.40
2023-03-24T08:04:29.567Z,99.90
2023-03-24T08:12:02.202Z,99.90
2023-03-24T08:14:34.245Z,99.90
2023-03-24T08:17:01.777Z,99.90
2023-03-24T08:21:56.811Z,99.90
2023-03-24T08:24:24.451Z,99.90
2023-03-24T08:26:52.810Z,99.90
2023-03-24T08:29:19.954Z,99.90
2023-03-24T08:31:47.429Z,99.90
2023-03-24T08:34:14.899Z,99.90
2023-03-24T08:36:42.385Z,99.90
2023-03-24T08:39:09.940Z,99.90
2023-03-24T08:41:37.536Z,99.90
2023-03-24T08:44:07.248Z,99.90
2023-03-24T08:46:35.662Z,99.90
2023-03-24T08:49:04.165Z,1.00
2023-03-24T08:51:32.288Z,1.00
2023-03-24T08:53:59.616Z,1.00
2023-03-24T08:56:27.495Z,1.00
2023-03-24T08:58:54.720Z,1.00
2023-03-24T09:01:23.205Z,1.00
2023-03-24T09:03:51.195Z,1.00
2023-03-24T09:06:18.642Z,1.00
2023-03-24T09:08:46.123Z,1.00
2023-03-24T09:11:18.567Z,1.00
2023-03-24T09:13:46.108Z,1.00
2023-03-24T09:16:14.073Z,1.00
2023-03-24T09:18:41.709Z,1.00
2023-03-24T09:21:09.709Z,1.00
2023-03-24T09:23:37.228Z,1.00
2023-03-24T09:26:05.585Z,1.00
2023-03-24T09:28:33.009Z,1.00
2023-03-24T09:31:03.170Z,1.00
2023-03-24T09:33:30.902Z,1.00
2023-03-24T09:36:00.564Z,1.00
2023-03-24T09:38:28.732Z,1.00
2023-03-24T09:41:01.670Z,1.00
2023-03-24T09:43:43.902Z,1.00
2023-03-24T09:46:48.736Z,1.00
2023-03-24T09:49:23.664Z,1.00
2023-03-24T09:51:56.586Z,1.00
2023-03-24T09:54:45.805Z,1.00
2023-03-24T09:57:48.094Z,1.00
2023-03-24T10:00:27.996Z,1.00
2023-03-24T10:03:01.327Z,1.00
2023-03-24T10:05:38.755Z,1.00
2023-03-24T10:08:21.666Z,1.00
2023-03-24T10:11:21.049Z,1.00
2023-03-24T10:14:14.350Z,1.00
2023-03-24T10:16:54.469Z,1.00
2023-03-24T10:19:44.556Z,1.00
2023-03-24T10:22:26.033Z,1.00
2023-03-24T10:25:04.354Z,1.00
2023-03-24T10:27:42.495Z,1.00
2023-03-24T10:30:20.796Z,1.00
2023-03-24T10:32:48.038Z,1.00
2023-03-24T10:35:24.746Z,1.00
2023-03-24T10:37:53.070Z,1.00
2023-03-24T10:40:27.208Z,1.00
2023-03-24T10:43:06.885Z,1.00
2023-03-24T10:45:39.822Z,1.00
2023-03-24T10:48:07.661Z,1.00
2023-03-24T10:50:36.174Z,1.00
2023-03-24T10:53:20.457Z,1.00
2023-03-24T10:55:49.110Z,1.00
2023-03-24T10:58:43.265Z,1.00
2023-03-24T11:01:24.505Z,1.00
2023-03-24T11:03:52.198Z,1.00
2023-03-24T11:06:21.699Z,1.00
2023-03-24T11:09:09.536Z,1.00
2023-03-24T11:11:37.117Z,1.00
2023-03-24T11:14:18.165Z,1.00
2023-03-24T11:16:45.824Z,1.00
2023-03-24T11:19:22.358Z,1.00
2023-03-24T11:21:52.664Z,1.00
2023-03-24T11:24:20.779Z,1.00
2023-03-24T11:27:00.494Z,1.00
2023-03-24T11:29:30.485Z,1.00
2023-03-24T11:32:03.578Z,1.00
2023-03-24T11:34:42.463Z,1.00
2023-03-24T11:37:22.379Z,1.00
2023-03-24T11:40:26.051Z,1.00
2023-03-24T11:43:01.231Z,1.00
2023-03-24T11:45:40.860Z,1.00
2023-03-24T11:48:19.624Z,1.00
2023-03-24T11:50:47.616Z,1.00
2023-03-24T11:53:31.880Z,1.00
2023-03-24T11:56:20.102Z,1.00
2023-03-24T11:58:56.173Z,1.00
2023-03-24T12:01:23.311Z,1.00
2023-03-24T12:04:09.304Z,1.00
2023-03-24T12:07:14.850Z,1.00
2023-03-24T12:10:14.608Z,1.00
2023-03-24T12:13:29.640Z,1.00
2023-03-24T12:16:29.810Z,1.00
2023-03-24T12:19:15.131Z,1.00
2023-03-24T12:22:12.136Z,1.00
2023-03-24T12:25:04.266Z,1.00
2023-03-24T12:27:52.588Z,1.00
2023-03-24T12:30:25.886Z,1.00
2023-03-24T12:33:15.524Z,1.00
2023-03-24T12:35:53.628Z,1.00
2023-03-24T12:38:45.724Z,1.00
2023-03-24T12:41:43.396Z,1.00
2023-03-24T12:44:11.138Z,1.00
2023-03-24T12:46:49.872Z,1.00
2023-03-24T12:49:55.380Z,1.00
2023-03-24T12:55:40.038Z,1.00
2023-03-24T12:58:47.927Z,1.00
2023-03-24T13:01:34.344Z,1.00
2023-03-24T13:04:15.595Z,1.00
2023-03-24T13:06:59.671Z,1.00
2023-03-24T13:09:42.286Z,1.00
2023-03-24T13:12:29.022Z,1.00
2023-03-24T13:15:04.874Z,1.00
2023-03-24T13:17:45.969Z,1.00
2023-03-24T13:20:17.334Z,1.00
2023-03-24T13:22:45.262Z,1.00
2023-03-24T13:25:46.795Z,1.00
2023-03-24T13:28:21.338Z,1.00
2023-03-24T13:30:50.179Z,1.00
2023-03-24T13:33:26.669Z,1.00
2023-03-24T13:36:31.602Z,1.00
2023-03-24T13:39:05.759Z,1.00
2023-03-24T13:41:42.224Z,1.00
2023-03-24T13:44:22.301Z,1.00
2023-03-24T13:47:16.517Z,1.00
2023-03-24T13:50:01.898Z,1.00
2023-03-24T13:52:45.217Z,1.00
2023-03-24T13:55:19.771Z,1.00
2023-03-24T13:58:00.586Z,1.00
2023-03-24T14:00:28.816Z,1.00
2023-03-24T14:03:18.980Z,1.00
2023-03-24T14:06:17.629Z,1.00
2023-03-24T14:08:53.648Z,1.00
2023-03-24T14:11:38.336Z,1.00
2023-03-24T14:14:22.523Z,1.00
2023-03-24T14:17:08.485Z,1.00
2023-03-24T14:19:40.610Z,1.00
2023-03-24T14:22:21.725Z,1.00
2023-03-24T14:25:00.509Z,1.00
2023-03-24T14:27:35.253Z,1.00
2023-03-24T14:30:25.571Z,1.00
2023-03-24T14:32:57.002Z,1.00
2023-03-24T14:35:26.590Z,1.00
2023-03-24T14:37:57.720Z,1.00
2023-03-24T14:40:33.344Z,1.00
2023-03-24T14:43:38.946Z,1.00
2023-03-24T14:46:21.290Z,1.00
2023-03-24T14:49:10.116Z,1.00
2023-03-24T14:52:15.153Z,1.00
2023-03-24T14:54:54.201Z,1.00
2023-03-24T14:58:09.315Z,1.00
2023-03-24T15:01:03.829Z,1.00
2023-03-24T15:03:50.337Z,1.00
2023-03-24T15:06:23.469Z,1.00
2023-03-24T15:08:58.394Z,1.00
2023-03-24T15:11:33.001Z,1.00
2023-03-24T15:14:02.471Z,1.00
2023-03-24T15:16:32.921Z,1.00
2023-03-24T15:19:25.017Z,1.00
2023-03-24T15:21:58.835Z,1.00
2023-03-24T15:24:30.120Z,1.00
2023-03-24T15:27:07.146Z,1.00
2023-03-24T15:29:40.514Z,1.00
2023-03-24T15:32:18.630Z,1.00
2023-03-24T15:34:50.697Z,1.00
2023-03-24T15:37:31.405Z,1.00
2023-03-24T15:40:09.022Z,1.00
2023-03-24T15:42:44.940Z,1.00
2023-03-24T15:45:28.967Z,1.00
2023-03-24T15:47:59.620Z,1.00
2023-03-24T15:50:42.269Z,1.00
2023-03-24T15:53:18.966Z,1.00
2023-03-24T15:55:48.971Z,1.00
2023-03-24T15:58:28.680Z,1.00
2023-03-24T16:01:00.343Z,1.00
2023-03-24T16:03:31.542Z,1.00
2023-03-24T16:05:59.171Z,1.00
2023-03-24T16:08:29.710Z,1.00
2023-03-24T16:10:59.112Z,1.00
2023-03-24T16:13:27.748Z,1.00
2023-03-24T16:16:00.058Z,1.00
2023-03-24T16:18:38.999Z,1.00
2023-03-24T16:21:18.701Z,1.00
2023-03-24T16:23:47.119Z,1.00
2023-03-24T16:26:23.866Z,1.00
2023-03-24T16:28:53.067Z,1.00
2023-03-24T16:31:33.792Z,1.00
2023-03-24T16:34:02.048Z,1.00
2023-03-24T16:36:29.667Z,1.00
2023-03-24T16:38:59.492Z,1.00
2023-03-24T16:41:27.158Z,1.00
2023-03-24T16:43:55.824Z,1.00
2023-03-24T16:46:34.686Z,1.00
2023-03-24T16:49:06.123Z,1.00
2023-03-24T16:51:34.104Z,1.00
2023-03-24T16:54:02.210Z,1.00
2023-03-24T16:56:30.368Z,1.00
2023-03-24T16:58:58.369Z,1.00
2023-03-24T17:01:46.424Z,1.00
2023-03-24T17:04:22.548Z,1.00
2023-03-24T17:06:55.163Z,1.00
2023-03-24T17:09:23.169Z,1.00
2023-03-24T17:11:53.756Z,1.00
2023-03-24T17:14:22.439Z,1.00
2023-03-24T17:16:53.062Z,1.00
2023-03-24T17:19:23.016Z,1.00
2023-03-24T17:21:56.878Z,1.00
2023-03-24T17:24:25.773Z,1.00
2023-03-24T17:26:53.150Z,1.00
2023-03-24T17:29:21.555Z,1.00
2023-03-24T17:31:49.022Z,1.00
2023-03-24T17:34:21.718Z,1.00
2023-03-24T17:36:51.861Z,1.00
2023-03-24T17:39:21.961Z,1.00
2023-03-24T17:41:50.228Z,1.00
2023-03-24T17:44:18.764Z,1.00
2023-03-24T17:46:46.334Z,1.00
2023-03-24T17:49:14.393Z,1.00
2023-03-24T17:51:42.460Z,1.00
2023-03-24T17:54:11.955Z,1.00
2023-03-24T17:56:40.305Z,1.00
2023-03-24T17:59:08.407Z,1.00
2023-03-24T18:01:39.469Z,1.00
2023-03-24T18:04:07.508Z,1.00
2023-03-24T18:06:35.287Z,1.00
2023-03-24T18:09:03.361Z,1.00
2023-03-24T18:11:31.119Z,1.00
2023-03-24T18:13:59.294Z,1.00
2023-03-24T18:16:31.074Z,1.00
2023-03-24T18:19:00.757Z,1.00
2023-03-24T18:21:29.277Z,1.00
2023-03-24T18:23:57.644Z,1.00
2023-03-24T18:26:26.264Z,1.00
2023-03-24T18:28:54.499Z,1.00
2023-03-24T18:33:54.239Z,1.00
2023-03-24T18:36:26.907Z,1.00
2023-03-24T18:39:02.058Z,1.00
2023-03-24T18:43:59.857Z,1.00
2023-03-24T18:56:23.945Z,1.00
2023-03-24T19:01:27.039Z,1.00
2023-03-24T19:03:57.448Z,1.00
2023-03-24T19:06:31.753Z,1.00
2023-03-24T19:11:29.822Z,1.00
2023-03-24T19:13:59.756Z,1.00
2023-03-24T19:16:28.533Z,1.00
2023-03-24T19:28:55.163Z,1.00
2023-03-24T19:31:24.354Z,1.00
2023-03-24T19:33:54.283Z,1.00
2023-03-24T19:36:25.686Z,1.00
2023-03-24T19:38:55.164Z,1.00
2023-03-24T20:01:19.297Z,1.00
2023-03-24T20:18:39.943Z,1.00
2023-03-24T20:21:09.440Z,1.00
2023-03-24T20:31:04.066Z,1.00
2023-03-24T20:36:00.983Z,1.00
2023-03-24T20:41:05.596Z,1.00
2023-03-24T20:43:37.381Z,1.00
2023-03-24T20:46:10.172Z,1.00
2023-03-24T20:56:07.258Z,1.00
2023-03-24T20:58:37.744Z,1.00
2023-03-24T21:01:12.655Z,1.00
2023-03-24T21:16:11.369Z,1.00
2023-03-24T21:23:42.857Z,1.00
2023-03-24T21:26:15.487Z,1.00
2023-03-24T21:31:19.105Z,1.00
2023-03-24T21:41:11.860Z,1.00
2023-03-24T21:51:25.052Z,1.00
2023-03-24T21:53:59.944Z,1.00
2023-03-24T22:06:23.216Z,1.00
2023-03-24T22:08:53.194Z,1.00
2023-03-24T22:13:49.197Z,1.00
2023-03-24T22:21:14.340Z,1.00
2023-03-24T22:26:14.337Z,1.00
2023-03-24T22:31:16.394Z,1.00
2023-03-24T22:33:44.977Z,1.00
2023-03-24T22:36:12.751Z,1.00
2023-03-24T22:41:11.841Z,1.00
2023-03-24T22:46:10.573Z,1.00
2023-03-24T22:48:41.330Z,1.00
2023-03-24T23:08:33.172Z,1.00
2023-03-24T23:21:09.528Z,1.00
2023-03-24T23:23:38.874Z,1.00
2023-03-24T23:26:08.035Z,1.00
2023-03-24T23:31:17.062Z,1.00
2023-03-24T23:33:45.350Z,1.00
2023-03-24T23:36:19.136Z,1.00
2023-03-24T23:38:50.734Z,1.00
2023-03-24T23:41:19.540Z,1.00
2023-03-24T23:43:51.302Z,1.00
2023-03-24T23:46:19.972Z,1.00
2023-03-24T23:56:14.008Z,1.00
2023-03-24T23:58:42.733Z,1.00
